createdAt,value
2017-11-11T00:00:18.398Z,7.50
2017-11-11T00:02:46.612Z,7.60
2017-11-11T00:05:14.727Z,7.70
2017-11-11T00:07:43.648Z,7.60
2017-11-11T00:10:11.781Z,7.60
2017-11-11T00:12:39.928Z,7.60
2017-11-11T00:15:08.078Z,7.60
2017-11-11T00:17:36.239Z,7.60
2017-11-11T00:20:04.385Z,7.50
2017-11-11T00:22:33.340Z,7.60
2017-11-11T00:25:01.460Z,7.60
2017-11-11T00:27:29.613Z,7.60
2017-11-11T00:29:58.507Z,7.80
2017-11-11T00:32:27.427Z,7.80
2017-11-11T00:34:55.575Z,7.80
2017-11-11T00:37:24.475Z,7.80
2017-11-11T00:39:53.622Z,7.80
2017-11-11T00:42:22.580Z,7.90
2017-11-11T00:44:50.707Z,7.80
2017-11-11T00:47:18.864Z,7.90
2017-11-11T00:49:47.015Z,7.90
2017-11-11T00:52:15.186Z,7.90
2017-11-11T00:54:43.349Z,8.00
2017-11-11T00:57:11.488Z,7.90
2017-11-11T00:59:39.648Z,7.90
2017-11-11T01:02:07.801Z,8.00
2017-11-11T01:04:35.949Z,8.00
2017-11-11T01:07:04.084Z,8.10
2017-11-11T01:09:32.249Z,8.10
2017-11-11T01:12:00.396Z,8.10
2017-11-11T01:14:28.551Z,8.00
2017-11-11T01:16:56.703Z,7.90
2017-11-11T01:19:25.638Z,8.10
2017-11-11T01:21:53.763Z,8.10
2017-11-11T01:24:22.770Z,8.00
2017-11-11T01:26:50.925Z,8.00
2017-11-11T01:29:19.843Z,7.90
2017-11-11T01:31:47.951Z,7.90
2017-11-11T01:34:16.093Z,8.00
2017-11-11T01:36:44.227Z,8.10
2017-11-11T01:39:12.361Z,8.00
2017-11-11T01:41:40.504Z,7.80
2017-11-11T01:44:08.643Z,7.80
2017-11-11T01:46:36.761Z,7.90
2017-11-11T01:49:04.901Z,7.80
2017-11-11T01:51:33.015Z,7.90
2017-11-11T01:54:01.147Z,7.90
2017-11-11T01:56:29.271Z,7.80
2017-11-11T01:58:57.424Z,7.80
2017-11-11T02:01:25.586Z,7.90
2017-11-11T02:03:54.532Z,7.80
2017-11-11T02:06:22.634Z,7.80
2017-11-11T02:08:50.809Z,7.80
2017-11-11T02:11:19.724Z,7.90
2017-11-11T02:13:47.871Z,7.80
2017-11-11T02:16:16.768Z,7.90
2017-11-11T02:18:45.677Z,7.80
2017-11-11T02:21:13.794Z,7.70
2017-11-11T02:23:41.937Z,7.80
2017-11-11T02:26:10.078Z,7.70
2017-11-11T02:28:38.991Z,7.80
2017-11-11T02:31:07.581Z,7.70
2017-11-11T02:33:35.728Z,7.80
2017-11-11T02:36:04.660Z,7.80
2017-11-11T02:38:32.818Z,7.80
2017-11-11T02:41:00.949Z,7.90
2017-11-11T02:43:29.100Z,7.80
2017-11-11T02:45:57.240Z,7.90
2017-11-11T02:48:25.412Z,8.00
2017-11-11T02:50:53.534Z,8.00
2017-11-11T02:53:21.680Z,7.90
2017-11-11T02:55:49.822Z,8.00
2017-11-11T02:58:17.969Z,8.00
2017-11-11T03:00:46.116Z,8.00
2017-11-11T03:03:14.259Z,8.00
2017-11-11T03:05:42.404Z,8.10
2017-11-11T03:08:10.537Z,8.10
2017-11-11T03:10:39.147Z,8.00
2017-11-11T03:13:08.034Z,8.10
2017-11-11T03:15:37.353Z,8.10
2017-11-11T03:18:05.583Z,8.00
2017-11-11T03:20:33.807Z,8.00
2017-11-11T03:23:02.749Z,8.00
2017-11-11T03:25:30.896Z,8.00
2017-11-11T03:27:59.028Z,8.10
2017-11-11T03:30:27.232Z,8.00
2017-11-11T03:32:55.369Z,8.00
2017-11-11T03:35:23.511Z,8.20
2017-11-11T03:37:51.640Z,8.20
2017-11-11T03:40:20.561Z,8.10
2017-11-11T03:42:48.708Z,8.10
2017-11-11T03:45:17.626Z,8.00
2017-11-11T03:47:45.746Z,8.00
2017-11-11T03:50:13.907Z,7.90
2017-11-11T03:52:42.034Z,8.00
2017-11-11T03:55:10.182Z,8.10
2017-11-11T03:57:39.519Z,8.10
2017-11-11T04:00:07.664Z,8.10
2017-11-11T04:02:41.388Z,8.10
2017-11-11T04:05:09.540Z,8.10
2017-11-11T04:07:38.564Z,8.00
2017-11-11T04:10:06.799Z,8.00
2017-11-11T04:12:35.074Z,8.10
2017-11-11T04:15:03.234Z,7.90
2017-11-11T04:17:31.352Z,7.70
2017-11-11T04:19:59.495Z,7.80
2017-11-11T04:22:27.628Z,7.90
2017-11-11T04:24:55.788Z,7.70
2017-11-11T04:27:23.901Z,7.70
2017-11-11T04:29:52.047Z,7.60
2017-11-11T04:32:20.168Z,7.60
2017-11-11T04:34:48.311Z,7.60
2017-11-11T04:37:16.435Z,7.50
2017-11-11T04:39:45.336Z,7.50
2017-11-11T04:42:13.455Z,7.50
2017-11-11T04:44:41.568Z,7.50
2017-11-11T04:47:10.472Z,7.50
2017-11-11T04:49:38.612Z,7.50
2017-11-11T04:52:06.840Z,7.40
2017-11-11T04:54:34.988Z,7.50
2017-11-11T04:57:03.936Z,7.30
2017-11-11T04:59:32.062Z,7.30
2017-11-11T05:02:00.210Z,7.20
2017-11-11T05:04:29.111Z,7.10
2017-11-11T05:06:58.024Z,7.20
2017-11-11T05:09:26.167Z,7.10
2017-11-11T05:11:55.073Z,7.10
2017-11-11T05:14:23.955Z,7.10
2017-11-11T05:16:59.754Z,7.30
2017-11-11T05:19:31.612Z,7.30
2017-11-11T05:21:59.766Z,7.30
2017-11-11T05:24:27.899Z,7.20
2017-11-11T05:26:56.049Z,7.30
2017-11-11T05:29:24.182Z,7.30
2017-11-11T05:31:52.346Z,7.10
2017-11-11T05:34:21.106Z,7.20
2017-11-11T05:36:50.068Z,7.20
2017-11-11T05:39:18.223Z,7.10
2017-11-11T05:41:46.413Z,7.20
2017-11-11T05:44:14.604Z,7.20
2017-11-11T05:46:42.762Z,7.30
2017-11-11T05:49:10.911Z,7.30
2017-11-11T05:51:39.044Z,7.40
2017-11-11T05:54:07.246Z,7.50
2017-11-11T05:56:35.366Z,7.40
2017-11-11T05:59:03.514Z,7.40
2017-11-11T06:01:31.663Z,7.50
2017-11-11T06:04:00.589Z,7.60
2017-11-11T06:06:28.724Z,7.60
2017-11-11T06:08:57.664Z,7.50
2017-11-11T06:11:25.836Z,7.50
2017-11-11T06:13:53.983Z,7.60
2017-11-11T06:16:22.112Z,7.70
2017-11-11T06:18:50.266Z,7.70
2017-11-11T06:21:18.395Z,7.80
2017-11-11T06:23:46.536Z,7.70
2017-11-11T06:26:14.656Z,7.60
2017-11-11T06:28:42.799Z,7.50
2017-11-11T06:31:11.691Z,7.50
2017-11-11T06:33:39.880Z,7.50
2017-11-11T06:36:08.002Z,7.50
2017-11-11T06:38:36.172Z,7.50
2017-11-11T06:41:04.325Z,7.30
2017-11-11T06:43:32.489Z,7.30
2017-11-11T06:46:00.599Z,7.20
2017-11-11T06:48:28.749Z,7.10
2017-11-11T06:50:57.328Z,7.10
2017-11-11T06:53:25.513Z,7.00
2017-11-11T06:55:53.637Z,7.10
2017-11-11T06:58:22.550Z,7.10
2017-11-11T07:00:50.667Z,7.00
2017-11-11T07:03:18.824Z,7.00
2017-11-11T07:05:46.970Z,7.00
2017-11-11T07:08:15.085Z,7.20
2017-11-11T07:10:43.226Z,7.20
2017-11-11T07:13:11.346Z,7.20
2017-11-11T07:15:39.496Z,7.30
2017-11-11T07:18:07.601Z,7.30
2017-11-11T07:20:35.752Z,7.30
2017-11-11T07:23:03.884Z,7.30
2017-11-11T07:25:32.046Z,7.40
2017-11-11T07:28:00.179Z,7.50
2017-11-11T07:30:29.128Z,7.80
2017-11-11T07:32:57.292Z,7.80
2017-11-11T07:35:25.435Z,7.80
2017-11-11T07:37:54.364Z,7.80
2017-11-11T07:40:22.518Z,7.80
2017-11-11T07:42:51.421Z,7.90
2017-11-11T07:45:19.576Z,7.90
2017-11-11T07:47:48.465Z,7.90
2017-11-11T07:50:17.385Z,7.90
2017-11-11T07:52:45.512Z,7.90
2017-11-11T07:55:13.657Z,7.90
2017-11-11T07:57:41.787Z,7.90
2017-11-11T08:00:10.730Z,7.90
2017-11-11T08:02:41.615Z,7.90
2017-11-11T08:05:10.554Z,8.00
2017-11-11T08:07:38.683Z,8.00
2017-11-11T08:10:07.588Z,7.80
2017-11-11T08:12:35.752Z,7.80
2017-11-11T08:15:03.881Z,7.80
2017-11-11T08:17:32.026Z,7.80
2017-11-11T08:20:00.149Z,7.90
2017-11-11T08:22:28.304Z,7.90
2017-11-11T08:24:56.439Z,8.10
2017-11-11T08:27:24.583Z,8.10
2017-11-11T08:29:53.465Z,8.20
2017-11-11T08:32:22.387Z,8.30
2017-11-11T08:34:50.523Z,8.20
2017-11-11T08:37:18.669Z,8.20
2017-11-11T08:39:46.815Z,8.10
2017-11-11T08:42:14.963Z,8.20
2017-11-11T08:44:43.089Z,8.10
2017-11-11T08:47:11.222Z,8.20
2017-11-11T08:49:39.350Z,8.20
2017-11-11T08:52:07.501Z,8.20
2017-11-11T08:54:35.632Z,8.10
2017-11-11T08:57:03.782Z,8.10
2017-11-11T08:59:31.896Z,8.00
2017-11-11T09:02:00.044Z,8.10
2017-11-11T09:04:28.936Z,8.20
2017-11-11T09:06:57.863Z,8.30
2017-11-11T09:09:25.993Z,8.30
2017-11-11T09:11:54.918Z,8.30
2017-11-11T09:14:23.076Z,8.30
2017-11-11T09:16:51.194Z,8.40
2017-11-11T09:19:19.398Z,8.50
2017-11-11T09:21:48.294Z,8.50
2017-11-11T09:24:17.204Z,8.50
2017-11-11T09:26:45.348Z,8.50
2017-11-11T09:29:13.497Z,8.50
2017-11-11T09:31:41.629Z,8.50
2017-11-11T09:34:09.784Z,8.70
2017-11-11T09:36:38.671Z,8.80
2017-11-11T09:39:07.639Z,8.80
2017-11-11T09:41:35.774Z,8.80
2017-11-11T09:44:03.923Z,9.00
2017-11-11T09:46:32.052Z,9.20
2017-11-11T09:49:00.207Z,9.30
2017-11-11T09:51:28.332Z,9.40
2017-11-11T09:53:57.236Z,9.80
2017-11-11T09:56:25.358Z,9.80
2017-11-11T09:58:53.524Z,9.90
2017-11-11T10:01:21.669Z,10.10
2017-11-11T10:03:49.820Z,10.00
2017-11-11T10:06:19.084Z,10.30
2017-11-11T10:08:47.238Z,10.30
2017-11-11T10:11:15.361Z,10.40
2017-11-11T10:13:44.291Z,10.30
2017-11-11T10:16:12.409Z,10.30
2017-11-11T10:18:40.560Z,10.40
2017-11-11T10:21:08.687Z,10.40
2017-11-11T10:23:36.837Z,10.30
2017-11-11T10:26:05.729Z,10.10
2017-11-11T10:28:34.660Z,10.10
2017-11-11T10:31:02.804Z,10.10
2017-11-11T10:33:30.928Z,10.30
2017-11-11T10:35:59.077Z,10.10
2017-11-11T10:38:27.201Z,10.00
2017-11-11T10:40:55.373Z,10.00
2017-11-11T10:43:23.500Z,9.80
2017-11-11T10:45:51.637Z,9.70
2017-11-11T10:48:20.531Z,9.70
2017-11-11T10:50:49.452Z,9.70
2017-11-11T10:53:17.570Z,9.70
2017-11-11T10:55:45.712Z,9.70
2017-11-11T10:58:13.856Z,9.70
2017-11-11T11:00:42.019Z,9.80
2017-11-11T11:03:10.899Z,9.90
2017-11-11T11:05:39.809Z,9.90
2017-11-11T11:08:07.921Z,9.90
2017-11-11T11:10:36.075Z,10.00
2017-11-11T11:13:04.216Z,9.90
2017-11-11T11:15:33.130Z,9.80
2017-11-11T11:18:01.258Z,9.80
2017-11-11T11:20:29.403Z,9.80
2017-11-11T11:22:57.538Z,9.70
2017-11-11T11:25:26.456Z,9.60
2017-11-11T11:27:54.583Z,9.60
2017-11-11T11:30:22.732Z,9.60
2017-11-11T11:32:50.871Z,9.70
2017-11-11T11:35:19.003Z,9.70
2017-11-11T11:37:47.904Z,9.90
2017-11-11T11:40:16.810Z,9.90
2017-11-11T11:42:44.935Z,9.90
2017-11-11T11:45:13.108Z,9.90
2017-11-11T11:47:41.226Z,9.90
2017-11-11T11:50:09.383Z,9.90
2017-11-11T11:52:38.308Z,10.20
2017-11-11T11:55:06.452Z,10.10
2017-11-11T11:57:35.372Z,10.10
2017-11-11T12:00:03.507Z,10.00
2017-11-11T12:02:37.164Z,10.00
2017-11-11T12:05:05.295Z,10.00
2017-11-11T12:07:34.218Z,10.00
2017-11-11T12:10:02.371Z,10.00
2017-11-11T12:12:30.530Z,10.00
2017-11-11T12:14:59.413Z,9.60
2017-11-11T12:17:28.326Z,9.70
2017-11-11T12:19:56.464Z,9.70
2017-11-11T12:22:24.623Z,9.70
2017-11-11T12:24:52.733Z,9.70
2017-11-11T12:27:21.705Z,9.50
2017-11-11T12:29:49.827Z,9.40
2017-11-11T12:32:17.975Z,9.50
2017-11-11T12:34:46.852Z,9.30
2017-11-11T12:37:15.785Z,9.10
2017-11-11T12:39:43.908Z,9.10
2017-11-11T12:42:12.073Z,9.20
2017-11-11T12:44:40.215Z,9.10
2017-11-11T12:47:08.372Z,9.10
2017-11-11T12:49:36.500Z,9.10
2017-11-11T12:52:04.648Z,9.00
2017-11-11T12:54:32.767Z,9.00
2017-11-11T12:57:01.670Z,9.00
2017-11-11T12:59:29.787Z,9.00
2017-11-11T13:01:57.940Z,9.10
2017-11-11T13:04:26.071Z,9.20
2017-11-11T13:06:54.993Z,9.20
2017-11-11T13:09:23.135Z,9.20
2017-11-11T13:11:52.044Z,9.10
2017-11-11T13:14:20.163Z,9.10
2017-11-11T13:16:48.300Z,9.00
2017-11-11T13:19:16.442Z,9.00
2017-11-11T13:21:44.597Z,9.00
2017-11-11T13:24:12.715Z,9.00
2017-11-11T13:26:40.843Z,9.00
2017-11-11T13:29:09.000Z,9.00
2017-11-11T13:31:37.124Z,9.00
2017-11-11T13:34:06.039Z,8.90
2017-11-11T13:36:34.167Z,8.90
2017-11-11T13:39:02.318Z,8.80
2017-11-11T13:41:30.450Z,8.90
2017-11-11T13:43:58.597Z,8.80
2017-11-11T13:46:27.477Z,8.90
2017-11-11T13:48:55.611Z,8.90
2017-11-11T13:51:23.736Z,8.80
2017-11-11T13:53:52.651Z,9.00
2017-11-11T13:56:20.776Z,9.00
2017-11-11T13:58:48.931Z,8.90
2017-11-11T14:01:17.076Z,8.90
2017-11-11T14:03:45.232Z,8.90
2017-11-11T14:06:14.110Z,8.90
2017-11-11T14:08:43.019Z,8.90
2017-11-11T14:11:11.140Z,8.90
2017-11-11T14:13:39.276Z,9.00
2017-11-11T14:16:07.387Z,8.90
2017-11-11T14:18:35.536Z,8.80
2017-11-11T14:21:03.649Z,8.80
2017-11-11T14:23:31.794Z,8.90
2017-11-11T14:25:59.907Z,8.80
2017-11-11T14:28:28.809Z,8.90
2017-11-11T14:30:57.720Z,8.80
2017-11-11T14:33:25.845Z,8.80
2017-11-11T14:35:54.024Z,8.80
2017-11-11T14:38:22.149Z,8.80
2017-11-11T14:40:50.297Z,8.90
2017-11-11T14:43:19.187Z,8.90
2017-11-11T14:45:48.098Z,9.00
2017-11-11T14:48:16.230Z,9.00
2017-11-11T14:50:45.162Z,9.00
2017-11-11T14:53:13.289Z,9.00
2017-11-11T14:55:41.440Z,8.90
2017-11-11T14:58:09.570Z,9.00
2017-11-11T15:00:37.747Z,8.90
2017-11-11T15:03:05.875Z,9.00
2017-11-11T15:05:34.474Z,9.00
2017-11-11T15:08:03.379Z,9.00
2017-11-11T15:10:32.296Z,8.90
2017-11-11T15:13:00.439Z,8.90
2017-11-11T15:15:29.353Z,8.80
2017-11-11T15:17:57.513Z,8.80
2017-11-11T15:20:26.424Z,8.80
2017-11-11T15:22:54.547Z,8.70
2017-11-11T15:25:22.696Z,8.80
2017-11-11T15:27:50.816Z,8.90
2017-11-11T15:30:19.734Z,9.00
2017-11-11T15:32:47.842Z,9.00
2017-11-11T15:35:15.994Z,8.80
2017-11-11T15:37:44.121Z,8.70
2017-11-11T15:40:12.274Z,8.60
2017-11-11T15:42:40.391Z,8.50
2017-11-11T15:45:09.286Z,8.30
2017-11-11T15:47:37.416Z,8.30
2017-11-11T15:50:05.556Z,8.30
2017-11-11T15:52:33.686Z,8.30
2017-11-11T15:55:02.907Z,8.30
2017-11-11T15:57:31.032Z,8.30
2017-11-11T15:59:59.238Z,8.30
2017-11-11T16:02:27.499Z,8.20
2017-11-11T16:04:55.611Z,8.20
2017-11-11T16:07:23.818Z,8.20
2017-11-11T16:09:51.932Z,8.10
2017-11-11T16:12:20.071Z,8.00
2017-11-11T16:14:48.178Z,8.00
2017-11-11T16:17:16.317Z,8.10
2017-11-11T16:19:44.438Z,8.10
2017-11-11T16:22:13.497Z,8.10
2017-11-11T16:24:42.427Z,7.90
2017-11-11T16:27:11.349Z,7.80
2017-11-11T16:29:39.476Z,7.70
2017-11-11T16:32:07.636Z,7.80
2017-11-11T16:34:35.773Z,7.80
2017-11-11T16:37:03.902Z,7.80
2017-11-11T16:39:32.015Z,7.80
2017-11-11T16:42:00.199Z,7.70
2017-11-11T16:44:28.311Z,7.70
2017-11-11T16:46:56.473Z,7.80
2017-11-11T16:49:24.601Z,7.80
2017-11-11T16:51:52.760Z,7.80
2017-11-11T16:54:21.648Z,7.80
2017-11-11T16:56:50.577Z,7.80
2017-11-11T16:59:18.691Z,7.80
2017-11-11T17:01:46.852Z,7.80
2017-11-11T17:04:15.057Z,7.70
2017-11-11T17:06:43.965Z,7.60
2017-11-11T17:09:12.175Z,7.60
2017-11-11T17:11:40.303Z,7.50
2017-11-11T17:14:09.212Z,7.40
2017-11-11T17:16:37.397Z,7.30
2017-11-11T17:19:05.553Z,7.30
2017-11-11T17:21:34.440Z,7.10
2017-11-11T17:24:03.349Z,7.00
2017-11-11T17:26:31.476Z,7.00
2017-11-11T17:28:59.632Z,7.00
2017-11-11T17:31:27.750Z,7.00
2017-11-11T17:33:56.670Z,7.00
2017-11-11T17:36:24.810Z,7.00
2017-11-11T17:38:55.135Z,7.00
2017-11-11T17:41:23.359Z,7.00
2017-11-11T17:43:51.610Z,6.90
2017-11-11T17:46:21.111Z,6.70
2017-11-11T17:48:51.137Z,6.70
2017-11-11T17:51:19.304Z,6.60
2017-11-11T17:53:48.312Z,6.60
2017-11-11T17:56:16.485Z,6.60
2017-11-11T17:58:44.709Z,6.60
2017-11-11T18:01:13.264Z,6.40
2017-11-11T18:03:41.894Z,6.50
2017-11-11T18:06:10.887Z,6.40
2017-11-11T18:08:39.028Z,6.40
2017-11-11T18:11:07.151Z,6.40
2017-11-11T18:13:35.314Z,6.50
2017-11-11T18:16:03.932Z,6.50
2017-11-11T18:18:32.110Z,6.60
2017-11-11T18:21:01.403Z,6.70
2017-11-11T18:23:29.987Z,6.60
2017-11-11T18:25:58.190Z,6.70
2017-11-11T18:28:26.336Z,6.70
2017-11-11T18:31:01.500Z,6.80
2017-11-11T18:33:29.747Z,6.80
2017-11-11T18:35:58.644Z,6.80
2017-11-11T18:38:27.630Z,6.90
2017-11-11T18:40:56.781Z,6.80
2017-11-11T18:43:24.924Z,6.90
2017-11-11T18:45:53.122Z,6.80
2017-11-11T18:48:21.560Z,6.80
2017-11-11T18:50:50.761Z,6.90
2017-11-11T18:53:19.800Z,6.90
2017-11-11T18:55:47.982Z,6.90
2017-11-11T18:58:16.100Z,6.90
2017-11-11T19:00:45.009Z,6.90
2017-11-11T19:03:13.135Z,6.90
2017-11-11T19:05:45.211Z,6.90
2017-11-11T19:08:13.445Z,6.90
2017-11-11T19:10:42.250Z,6.90
2017-11-11T19:13:11.832Z,6.90
2017-11-11T19:15:40.028Z,7.00
2017-11-11T19:18:08.153Z,7.10
2017-11-11T19:20:36.672Z,7.10
2017-11-11T19:23:06.078Z,7.00
2017-11-11T19:25:34.267Z,7.00
2017-11-11T19:28:02.436Z,7.10
2017-11-11T19:30:31.402Z,7.00
2017-11-11T19:32:59.673Z,7.00
2017-11-11T19:35:28.203Z,7.10
2017-11-11T19:37:56.397Z,7.10
2017-11-11T19:40:24.579Z,7.10
2017-11-11T19:42:52.799Z,7.00
2017-11-11T19:45:22.505Z,7.00
2017-11-11T19:47:50.701Z,7.00
2017-11-11T19:50:19.620Z,7.10
2017-11-11T19:52:47.739Z,7.10
2017-11-11T19:55:15.906Z,7.10
2017-11-11T19:57:44.030Z,7.00
2017-11-11T20:00:12.946Z,7.10
2017-11-11T20:02:42.619Z,7.10
2017-11-11T20:05:11.519Z,7.10
2017-11-11T20:07:40.407Z,7.20
2017-11-11T20:10:09.338Z,7.20
2017-11-11T20:12:37.906Z,7.20
2017-11-11T20:15:06.090Z,7.20
2017-11-11T20:17:34.221Z,7.20
2017-11-11T20:20:02.425Z,7.20
2017-11-11T20:22:30.560Z,7.20
2017-11-11T20:24:58.726Z,7.20
2017-11-11T20:27:26.854Z,7.10
2017-11-11T20:29:54.997Z,7.00
2017-11-11T20:32:23.929Z,7.10
2017-11-11T20:34:52.062Z,7.10
2017-11-11T20:37:20.966Z,7.00
2017-11-11T20:39:49.853Z,7.00
2017-11-11T20:42:18.762Z,7.00
2017-11-11T20:44:46.893Z,6.90
2017-11-11T20:47:15.031Z,7.00
2017-11-11T20:49:43.160Z,7.00
2017-11-11T20:52:12.073Z,7.00
2017-11-11T20:54:40.199Z,7.00
2017-11-11T20:57:08.401Z,7.00
2017-11-11T20:59:37.307Z,7.10
2017-11-11T21:02:06.202Z,7.20
2017-11-11T21:04:34.345Z,7.20
2017-11-11T21:07:02.489Z,7.20
2017-11-11T21:09:30.637Z,7.30
2017-11-11T21:11:58.789Z,7.40
2017-11-11T21:14:27.732Z,7.30
2017-11-11T21:16:55.873Z,7.30
2017-11-11T21:19:23.999Z,7.30
2017-11-11T21:21:52.162Z,7.30
2017-11-11T21:24:20.291Z,7.20
2017-11-11T21:26:48.440Z,7.20
2017-11-11T21:29:17.324Z,7.20
2017-11-11T21:31:45.473Z,7.20
2017-11-11T21:34:13.595Z,7.30
2017-11-11T21:36:42.527Z,7.40
2017-11-11T21:39:10.668Z,7.40
2017-11-11T21:41:38.884Z,7.50
2017-11-11T21:44:07.015Z,7.40
2017-11-11T21:46:35.178Z,7.30
2017-11-11T21:49:04.106Z,7.30
2017-11-11T21:51:32.304Z,7.30
2017-11-11T21:54:00.428Z,7.40
2017-11-11T21:56:28.577Z,7.40
2017-11-11T21:58:56.716Z,7.40
2017-11-11T22:01:24.866Z,7.40
2017-11-11T22:03:53.004Z,7.50
2017-11-11T22:06:21.917Z,7.60
2017-11-11T22:08:50.043Z,7.60
2017-11-11T22:11:18.184Z,7.70
2017-11-11T22:13:46.344Z,7.60
2017-11-11T22:16:14.458Z,7.60
2017-11-11T22:18:42.612Z,7.50
2017-11-11T22:21:10.944Z,7.50
2017-11-11T22:23:39.154Z,7.60
2017-11-11T22:26:07.278Z,7.50
2017-11-11T22:28:35.433Z,7.50
2017-11-11T22:31:03.574Z,7.50
2017-11-11T22:33:31.740Z,7.50
2017-11-11T22:35:59.870Z,7.50
2017-11-11T22:38:28.049Z,7.50
2017-11-11T22:40:56.189Z,7.50
2017-11-11T22:43:24.352Z,7.40
2017-11-11T22:45:52.478Z,7.40
2017-11-11T22:48:20.621Z,7.30
2017-11-11T22:50:48.746Z,7.20
2017-11-11T22:53:16.977Z,7.30
2017-11-11T22:55:45.099Z,7.30
2017-11-11T22:58:13.260Z,7.20
2017-11-11T23:00:41.394Z,7.20
2017-11-11T23:03:09.522Z,7.00
2017-11-11T23:05:37.655Z,7.00
2017-11-11T23:08:05.839Z,7.00
2017-11-11T23:10:33.961Z,6.90
2017-11-11T23:13:02.121Z,6.90
2017-11-11T23:15:30.916Z,6.80
2017-11-11T23:17:59.056Z,6.80
2017-11-11T23:20:27.189Z,6.70
2017-11-11T23:22:55.331Z,6.80
2017-11-11T23:25:23.497Z,6.80
2017-11-11T23:27:52.380Z,6.90
2017-11-11T23:30:21.296Z,7.00
2017-11-11T23:32:50.268Z,7.00
2017-11-11T23:35:19.180Z,7.10
2017-11-11T23:37:47.333Z,7.10
2017-11-11T23:40:16.262Z,7.10
2017-11-11T23:42:44.397Z,7.10
2017-11-11T23:45:13.303Z,6.90
2017-11-11T23:47:41.421Z,6.90
2017-11-11T23:50:09.563Z,7.00
2017-11-11T23:52:37.723Z,7.00
2017-11-11T23:55:05.861Z,7.00
2017-11-11T23:57:34.005Z,7.00
